Latest Weather Observations for Kurnell

IDN60901

Issued at 11:31 pm EST Sunday 26 June 2016 (issued every 10 minutes, with the page automatically refreshed every 10 minutes)

About weather observations | Map of Sydney area stations | Latest observations for Sydney area | Other Formats
Station Details ID: 066043 Name: KURNELL AWS Lat: -34.00 Lon: 151.21 Height: 4.0 m
Data from the previous 72 hours. | See also: Recent months for locations in New South Wales
Date/Time
EST
Temp
°C
App
Temp
°C
Dew
Point
°C
Rel
Hum
%
Delta-T
°C
Wind Press
QNH
hPa
Press
MSL
hPa
Rain since
9am
mm
Dir  Spd
km/h
Gust
km/h
Spd
kts
Gust
kts
26/11:30pm - - - - - WNW 13 15 7 8 - - -
26/11:00pm - - - - - SW 11 13 6 7 - - -
26/10:30pm - - - - - SW 9 9 5 5 - - -
26/10:00pm - - - - - WSW 4 7 2 4 - - -
26/09:30pm - - - - - WSW 7 9 4 5 - - -
26/09:00pm - - - - - NW 11 13 6 7 - - -
26/08:30pm - - - - - NW 15 17 8 9 - - -
26/08:00pm - - - - - NNW 13 17 7 9 - - -
26/07:30pm - - - - - NW 9 13 5 7 - - -
26/07:00pm - - - - - CALM 0 0 0 0 - - -
26/06:30pm - - - - - W 7 7 4 4 - - -
26/06:00pm - - - - - WSW 7 9 4 5 - - -
26/05:30pm - - - - - WSW 7 9 4 5 - - -
26/05:00pm - - - - - W 7 11 4 6 - - -
26/04:30pm - - - - - WNW 9 11 5 6 - - -
26/04:00pm - - - - - WNW 9 13 5 7 - - -
26/03:30pm - - - - - NW 13 17 7 9 - - -
26/03:00pm - - - - - NW 9 15 5 8 - - -
26/02:30pm - - - - - NW 13 15 7 8 - - -
26/02:00pm - - - - - NW 13 15 7 8 - - -
26/01:30pm - - - - - NW 11 13 6 7 - - -
26/01:00pm - - - - - WNW 13 15 7 8 - - -
26/12:30pm - - - - - WNW 11 13 6 7 - - -
26/12:00pm - - - - - NW 17 19 9 10 - - -
26/11:30am - - - - - NW 17 20 9 11 - - -
26/11:00am - - - - - NW 17 19 9 10 - - -
26/10:30am - - - - - NW 17 19 9 10 - - -
26/10:00am - - - - - NW 17 20 9 11 - - -
26/09:30am - - - - - WNW 17 20 9 11 - - -
26/09:00am - - - - - NW 19 22 10 12 - - -
26/08:30am - - - - - NW 19 24 10 13 - - -
26/08:00am - - - - - WNW 24 28 13 15 - - -
26/07:30am - - - - - WNW 22 26 12 14 - - -
26/07:00am - - - - - WNW 28 32 15 17 - - -
26/06:30am - - - - - WNW 30 33 16 18 - - -
26/06:00am - - - - - WNW 28 32 15 17 - - -
26/05:30am - - - - - NW 28 30 15 16 - - -
26/05:00am - - - - - WNW 22 26 12 14 - - -
26/04:30am - - - - - WNW 22 26 12 14 - - -
26/04:00am - - - - - W 26 28 14 15 - - -
26/03:30am - - - - - W 26 30 14 16 - - -
26/03:00am - - - - - WSW 20 26 11 14 - - -
26/02:30am - - - - - W 28 32 15 17 - - -
26/02:00am - - - - - W 28 35 15 19 - - -
26/01:30am - - - - - W 32 35 17 19 - - -
26/01:00am - - - - - W 32 35 17 19 - - -
26/12:30am - - - - - W 30 33 16 18 - - -
26/12:00am - - - - - W 28 33 15 18 - - -
 
Date/Time
EST
Temp
°C
App
Temp
°C
Dew
Point
°C
Rel
Hum
%
Delta-T
°C
Wind Press
QNH
hPa
Press
MSL
hPa
Rain since
9am
mm
Dir  Spd
km/h
Gust
km/h
Spd
kts
Gust
kts
25/11:30pm - - - - - W 26 30 14 16 - - -
25/11:00pm - - - - - W 26 32 14 17 - - -
25/10:30pm - - - - - WSW 24 28 13 15 - - -
25/10:00pm - - - - - W 28 33 15 18 - - -
25/09:30pm - - - - - W 28 33 15 18 - - -
25/09:00pm - - - - - W 28 35 15 19 - - -
25/08:30pm - - - - - W 26 32 14 17 - - -
25/08:00pm - - - - - W 28 33 15 18 - - -
25/07:30pm - - - - - W 28 30 15 16 - - -
25/07:00pm - - - - - W 20 26 11 14 - - -
25/06:30pm - - - - - WSW 17 19 9 10 - - -
25/06:00pm - - - - - WSW 15 17 8 9 - - -
25/05:30pm - - - - - WSW 15 17 8 9 - - -
25/05:00pm - - - - - SW 15 17 8 9 - - -
25/04:30pm - - - - - SW 17 22 9 12 - - -
25/04:00pm - - - - - SW 24 30 13 16 - - -
25/03:30pm - - - - - SSW 24 30 13 16 - - -
25/03:00pm - - - - - SSW 24 33 13 18 - - -
25/02:30pm - - - - - SSW 24 33 13 18 - - -
25/02:00pm - - - - - SW 28 37 15 20 - - -
25/01:30pm - - - - - SW 30 39 16 21 - - -
25/01:00pm - - - - - SW 32 48 17 26 - - -
25/12:30pm - - - - - SW 33 48 18 26 - - -
25/12:00pm - - - - - WSW 33 44 18 24 - - -
25/11:30am - - - - - SW 33 48 18 26 - - -
25/11:08am - - - - - WSW 28 46 15 25 - - -
25/11:00am - - - - - WSW 26 35 14 19 - - -
25/10:30am - - - - - W 30 35 16 19 - - -
25/10:00am - - - - - W 33 44 18 24 - - -
25/09:30am - - - - - W 35 41 19 22 - - -
25/09:00am - - - - - W 35 48 19 26 - - -
25/08:30am - - - - - W 37 46 20 25 - - -
25/08:00am - - - - - W 35 43 19 23 - - -
25/07:30am - - - - - W 35 46 19 25 - - -
25/07:00am - - - - - W 32 43 17 23 - - -
25/06:30am - - - - - W 35 43 19 23 - - -
25/06:00am - - - - - W 37 46 20 25 - - -
25/05:30am - - - - - W 37 48 20 26 - - -
25/05:00am - - - - - W 33 41 18 22 - - -
25/04:30am - - - - - W 41 52 22 28 - - -
25/04:00am - - - - - W 37 52 20 28 - - -
25/03:30am - - - - - W 41 52 22 28 - - -
25/03:00am - - - - - W 41 52 22 28 - - -
25/02:30am - - - - - W 35 46 19 25 - - -
25/02:00am - - - - - W 37 48 20 26 - - -
25/01:30am - - - - - W 24 33 13 18 - - -
25/01:00am - - - - - W 30 37 16 20 - - -
25/12:30am - - - - - W 33 41 18 22 - - -
25/12:00am - - - - - W 33 43 18 23 - - -
 
Date/Time
EST
Temp
°C
App
Temp
°C
Dew
Point
°C
Rel
Hum
%
Delta-T
°C
Wind Press
QNH
hPa
Press
MSL
hPa
Rain since
9am
mm
Dir  Spd
km/h
Gust
km/h
Spd
kts
Gust
kts
24/11:30pm - - - - - W 33 41 18 22 - - -
24/11:00pm - - - - - W 37 43 20 23 - - -
24/10:30pm - - - - - W 37 48 20 26 - - -
24/10:00pm - - - - - W 46 59 25 32 - - -
24/09:30pm - - - - - W 44 54 24 29 - - -
24/09:00pm - - - - - W 46 54 25 29 - - -
24/08:30pm - - - - - W 50 61 27 33 - - -
24/08:00pm - - - - - W 54 72 29 39 - - -
24/07:55pm - - - - - W 50 72 27 39 - - -
24/07:30pm - - - - - WNW 48 59 26 32 - - -
24/07:17pm - - - - - WNW 43 65 23 35 - - -
24/07:00pm - - - - - WNW 43 54 23 29 - - -
24/06:41pm - - - - - W 41 59 22 32 - - -
24/06:30pm - - - - - W 35 43 19 23 - - -
24/06:00pm - - - - - W 32 39 17 21 - - -
24/05:30pm - - - - - WNW 35 41 19 22 - - -
24/05:00pm - - - - - WNW 41 57 22 31 - - -
24/04:30pm - - - - - WNW 32 48 17 26 - - -
24/04:00pm - - - - - WSW 20 33 11 18 - - -
24/03:52pm - - - - - W 26 43 14 23 - - -
24/03:30pm - - - - - WNW 37 46 20 25 - - -
24/03:03pm - - - - - WNW 52 70 28 38 - - -
24/03:00pm - - - - - WNW 56 72 30 39 - - -
24/02:44pm - - - - - WNW 44 65 24 35 - - -
24/02:38pm - - - - - W 35 56 19 30 - - -
24/02:30pm - - - - - W 37 48 20 26 - - -
24/02:00pm - - - - - W 48 61 26 33 - - -
24/01:30pm - - - - - W 41 56 22 30 - - -
24/01:00pm - - - - - W 33 54 18 29 - - -
24/12:43pm - - - - - W 37 56 20 30 - - -
24/12:30pm - - - - - WNW 39 52 21 28 - - -
24/12:00pm - - - - - WNW 33 39 18 21 - - -
24/11:30am - - - - - WNW 35 41 19 22 - - -
24/11:00am - - - - - WNW 37 41 20 22 - - -
24/10:30am - - - - - NW 28 33 15 18 - - -
24/10:00am - - - - - WNW 32 52 17 28 - - -
24/09:51am - - - - - W 30 52 16 28 - - -
24/09:30am - - - - - SW 20 26 11 14 - - -
24/09:00am - - - - - NW 15 19 8 10 - - -
24/08:30am - - - - - NW 22 28 12 15 - - -
24/08:00am - - - - - NW 9 17 5 9 - - -
24/07:30am - - - - - NNW 13 19 7 10 - - -
24/07:00am - - - - - NNW 13 19 7 10 - - -
24/06:30am - - - - - N 17 20 9 11 - - -
24/06:00am - - - - - N 17 20 9 11 - - -
24/05:30am - - - - - N 19 24 10 13 - - -
24/05:00am - - - - - N 17 22 9 12 - - -
24/04:30am - - - - - N 20 26 11 14 - - -
24/04:00am - - - - - NNE 22 28 12 15 - - -
24/03:30am - - - - - NNE 20 24 11 13 - - -
24/03:00am - - - - - N 22 26 12 14 - - -
24/02:30am - - - - - N 22 28 12 15 - - -
24/02:00am - - - - - N 28 32 15 17 - - -
24/01:30am - - - - - N 28 35 15 19 - - -
24/01:00am - - - - - N 28 32 15 17 - - -
24/12:30am - - - - - N 26 32 14 17 - - -
24/12:00am - - - - - N 32 41 17 22 - - -

Latest Capital City Observations: Canberra | Sydney | Melbourne | Brisbane | Adelaide | Perth | Hobart | Darwin

Other Formats:

Comma delimited format used in spreadsheet applications
http://www.bom.gov.au/fwo/IDN60901/IDN60901.95756.axf

JavaScript Object Notation format (JSON) in row-major order
http://www.bom.gov.au/fwo/IDN60901/IDN60901.95756.json